Accueil
METAR-TAF:

METAR-TAF

Aéroports :

Newport, Oregon, États-Unis

Newport Municipal Airport

latitude: 44-34-49N, longitude: 124-03-29W, altitude: 49 m

Observation

Le bulletin a été fait il y a 27 minutes, à 21:35 UTC
Vent 5 kt de est/nord-est
Température 12°C
Humidité 47%
Pression 1029 hPa
Visibilité: 16.1 km
Nuages fragmentés à une hauteur de 7500 ft

METAR: KONP 122135Z AUTO 06005KT 10SM BKN075 12/01 A3038 RMK AO2

Heure: 14:02 (22:02 UTC)

Prévision

Le bulletin a été fait il y a 4 heures et 35 minutes, à 17:27 UTC
Prévision valable du 12 à 18 UTC au 13 à 18 UTC
Vent 11 kt de est
Visibilité: 10 km
Quelques nuages à une hauteur de 25000 ft
A partir de 12 à 2200 UTC
Vent 10 kt de est
Visibilité: 10 km
Nuages épars à une hauteur de 25000 ft

TAF: KONP 121727Z 1218/1318 09011KT P6SM FEW250 FM122200 09010KT P6SM SCT250

Observations et prévisions météorologiques de plus de 4000 aéroports (messages METAR et TAF).

Les stations disponibles sont représentées par des disques jaunes et rouges sur la carte.

Passer la souris dessus pour voir le nom de la station.

Cliquer dessus pour voir les observations et prévisions météorologiques.

Pour changer de carte: cliquez sur les boutons verts avec une croix noire pour zoomer, sur le bouton vert avec un tiret pour effectuer un zoom arrière, ou sur les flèches vertes pour les cartes adjacentes.


METAR-TAF: